sensor_id;sensor_type;location;lat;lon;timestamp;P1;durP1;ratioP1;P2;durP2;ratioP2
74849;SDS011;63397;47.480;19.238;2022-11-25T00:02:27;39.03;;;13.97;;
74849;SDS011;63397;47.480;19.238;2022-11-25T00:05:30;40.17;;;14.75;;
74849;SDS011;63397;47.480;19.238;2022-11-25T00:08:32;40.38;;;14.27;;
74849;SDS011;63397;47.480;19.238;2022-11-25T00:11:35;37.55;;;14.30;;
74849;SDS011;63397;47.480;19.238;2022-11-25T00:14:37;39.90;;;14.17;;
74849;SDS011;63397;47.480;19.238;2022-11-25T00:17:39;46.50;;;15.27;;
74849;SDS011;63397;47.480;19.238;2022-11-25T00:20:42;42.10;;;14.27;;
74849;SDS011;63397;47.480;19.238;2022-11-25T00:23:49;43.40;;;15.27;;
74849;SDS011;63397;47.480;19.238;2022-11-25T00:26:51;39.33;;;13.60;;
74849;SDS011;63397;47.480;19.238;2022-11-25T00:29:53;48.30;;;14.87;;
74849;SDS011;63397;47.480;19.238;2022-11-25T00:32:56;50.90;;;16.30;;
74849;SDS011;63397;47.480;19.238;2022-11-25T00:36:01;44.83;;;14.95;;
74849;SDS011;63397;47.480;19.238;2022-11-25T00:39:05;44.30;;;14.55;;
74849;SDS011;63397;47.480;19.238;2022-11-25T00:42:08;40.95;;;15.02;;
74849;SDS011;63397;47.480;19.238;2022-11-25T00:45:29;43.93;;;15.47;;
74849;SDS011;63397;47.480;19.238;2022-11-25T00:48:32;40.87;;;14.70;;
74849;SDS011;63397;47.480;19.238;2022-11-25T00:51:34;45.30;;;15.73;;
74849;SDS011;63397;47.480;19.238;2022-11-25T00:54:36;48.00;;;16.55;;
74849;SDS011;63397;47.480;19.238;2022-11-25T00:57:39;52.47;;;17.13;;
74849;SDS011;63397;47.480;19.238;2022-11-25T01:00:41;50.27;;;15.73;;
74849;SDS011;63397;47.480;19.238;2022-11-25T01:03:44;47.30;;;14.47;;
74849;SDS011;63397;47.480;19.238;2022-11-25T01:06:46;46.25;;;16.00;;
74849;SDS011;63397;47.480;19.238;2022-11-25T01:09:49;44.80;;;15.35;;
74849;SDS011;63397;47.480;19.238;2022-11-25T01:12:51;45.95;;;15.57;;
74849;SDS011;63397;47.480;19.238;2022-11-25T01:15:54;48.57;;;16.10;;
74849;SDS011;63397;47.480;19.238;2022-11-25T01:18:58;47.50;;;14.50;;
74849;SDS011;63397;47.480;19.238;2022-11-25T01:22:00;43.88;;;14.95;;
74849;SDS011;63397;47.480;19.238;2022-11-25T01:25:03;46.95;;;15.93;;
74849;SDS011;63397;47.480;19.238;2022-11-25T01:28:05;40.83;;;13.63;;
74849;SDS011;63397;47.480;19.238;2022-11-25T01:34:11;40.87;;;14.97;;
74849;SDS011;63397;47.480;19.238;2022-11-25T01:37:14;39.08;;;13.88;;
74849;SDS011;63397;47.480;19.238;2022-11-25T01:40:17;41.70;;;14.35;;
74849;SDS011;63397;47.480;19.238;2022-11-25T01:43:20;45.72;;;15.27;;
74849;SDS011;63397;47.480;19.238;2022-11-25T01:46:26;47.67;;;14.80;;
74849;SDS011;63397;47.480;19.238;2022-11-25T01:49:52;53.83;;;16.47;;
74849;SDS011;63397;47.480;19.238;2022-11-25T01:52:55;49.58;;;15.90;;
74849;SDS011;63397;47.480;19.238;2022-11-25T01:55:59;53.72;;;16.80;;
74849;SDS011;63397;47.480;19.238;2022-11-25T01:59:02;53.92;;;16.40;;
74849;SDS011;63397;47.480;19.238;2022-11-25T02:02:05;47.53;;;15.47;;
74849;SDS011;63397;47.480;19.238;2022-11-25T02:05:08;49.00;;;15.80;;
74849;SDS011;63397;47.480;19.238;2022-11-25T02:08:11;68.75;;;18.10;;
74849;SDS011;63397;47.480;19.238;2022-11-25T02:11:14;60.70;;;16.83;;
74849;SDS011;63397;47.480;19.238;2022-11-25T02:14:16;58.72;;;17.75;;
74849;SDS011;63397;47.480;19.238;2022-11-25T02:17:19;53.80;;;16.10;;
74849;SDS011;63397;47.480;19.238;2022-11-25T02:20:22;55.97;;;16.00;;
74849;SDS011;63397;47.480;19.238;2022-11-25T02:26:36;44.65;;;14.05;;
74849;SDS011;63397;47.480;19.238;2022-11-25T02:29:39;61.10;;;16.75;;
74849;SDS011;63397;47.480;19.238;2022-11-25T02:32:43;52.13;;;16.27;;
74849;SDS011;63397;47.480;19.238;2022-11-25T02:35:51;55.60;;;16.37;;
74849;SDS011;63397;47.480;19.238;2022-11-25T02:38:55;57.80;;;17.88;;
74849;SDS011;63397;47.480;19.238;2022-11-25T02:41:59;53.58;;;16.75;;
74849;SDS011;63397;47.480;19.238;2022-11-25T02:45:02;62.72;;;19.10;;
74849;SDS011;63397;47.480;19.238;2022-11-25T02:48:05;44.63;;;15.03;;
74849;SDS011;63397;47.480;19.238;2022-11-25T02:51:09;52.90;;;15.73;;
74849;SDS011;63397;47.480;19.238;2022-11-25T02:54:12;55.88;;;16.20;;
74849;SDS011;63397;47.480;19.238;2022-11-25T02:57:15;57.97;;;16.65;;
74849;SDS011;63397;47.480;19.238;2022-11-25T03:00:17;68.00;;;18.17;;
74849;SDS011;63397;47.480;19.238;2022-11-25T03:03:19;60.17;;;18.30;;
74849;SDS011;63397;47.480;19.238;2022-11-25T03:06:22;66.17;;;18.83;;
74849;SDS011;63397;47.480;19.238;2022-11-25T03:09:26;55.75;;;17.38;;
74849;SDS011;63397;47.480;19.238;2022-11-25T03:12:28;58.33;;;18.08;;
74849;SDS011;63397;47.480;19.238;2022-11-25T03:15:32;60.10;;;19.17;;
74849;SDS011;63397;47.480;19.238;2022-11-25T03:18:35;56.07;;;16.23;;
74849;SDS011;63397;47.480;19.238;2022-11-25T03:21:37;52.63;;;16.33;;
74849;SDS011;63397;47.480;19.238;2022-11-25T03:24:39;50.55;;;15.50;;
74849;SDS011;63397;47.480;19.238;2022-11-25T03:27:42;49.00;;;15.85;;
74849;SDS011;63397;47.480;19.238;2022-11-25T03:30:45;50.80;;;14.98;;
74849;SDS011;63397;47.480;19.238;2022-11-25T03:33:47;53.60;;;16.03;;
74849;SDS011;63397;47.480;19.238;2022-11-25T03:36:50;42.70;;;14.97;;
74849;SDS011;63397;47.480;19.238;2022-11-25T03:39:52;49.10;;;15.82;;
74849;SDS011;63397;47.480;19.238;2022-11-25T03:42:55;54.63;;;16.80;;
74849;SDS011;63397;47.480;19.238;2022-11-25T03:45:58;56.33;;;16.77;;
74849;SDS011;63397;47.480;19.238;2022-11-25T03:49:01;48.03;;;15.23;;
74849;SDS011;63397;47.480;19.238;2022-11-25T03:52:04;46.47;;;14.23;;
74849;SDS011;63397;47.480;19.238;2022-11-25T03:55:06;42.42;;;15.15;;
74849;SDS011;63397;47.480;19.238;2022-11-25T03:58:10;50.10;;;15.60;;
74849;SDS011;63397;47.480;19.238;2022-11-25T04:01:12;53.90;;;16.15;;
74849;SDS011;63397;47.480;19.238;2022-11-25T04:04:17;43.90;;;14.60;;
74849;SDS011;63397;47.480;19.238;2022-11-25T04:07:19;46.60;;;15.10;;
74849;SDS011;63397;47.480;19.238;2022-11-25T04:10:22;39.25;;;13.45;;
74849;SDS011;63397;47.480;19.238;2022-11-25T04:13:25;49.03;;;14.05;;
74849;SDS011;63397;47.480;19.238;2022-11-25T04:16:27;40.05;;;13.20;;
74849;SDS011;63397;47.480;19.238;2022-11-25T04:19:29;38.70;;;12.60;;
74849;SDS011;63397;47.480;19.238;2022-11-25T04:22:32;41.97;;;13.10;;
74849;SDS011;63397;47.480;19.238;2022-11-25T04:25:35;46.28;;;14.57;;
74849;SDS011;63397;47.480;19.238;2022-11-25T04:28:46;39.55;;;12.82;;
74849;SDS011;63397;47.480;19.238;2022-11-25T04:31:49;51.20;;;13.25;;
74849;SDS011;63397;47.480;19.238;2022-11-25T04:34:51;123.80;;;17.17;;
74849;SDS011;63397;47.480;19.238;2022-11-25T04:37:54;41.13;;;14.00;;
74849;SDS011;63397;47.480;19.238;2022-11-25T04:40:58;45.22;;;15.13;;
74849;SDS011;63397;47.480;19.238;2022-11-25T04:44:01;82.03;;;13.10;;
74849;SDS011;63397;47.480;19.238;2022-11-25T04:47:03;41.38;;;12.20;;
74849;SDS011;63397;47.480;19.238;2022-11-25T04:50:07;42.90;;;13.97;;
74849;SDS011;63397;47.480;19.238;2022-11-25T04:53:21;41.40;;;14.13;;
74849;SDS011;63397;47.480;19.238;2022-11-25T04:56:23;44.53;;;13.70;;
74849;SDS011;63397;47.480;19.238;2022-11-25T04:59:28;64.05;;;13.55;;
74849;SDS011;63397;47.480;19.238;2022-11-25T05:02:44;39.10;;;12.45;;
74849;SDS011;63397;47.480;19.238;2022-11-25T05:05:52;41.10;;;12.50;;
74849;SDS011;63397;47.480;19.238;2022-11-25T05:08:55;35.97;;;12.50;;
74849;SDS011;63397;47.480;19.238;2022-11-25T05:11:59;36.40;;;12.23;;
74849;SDS011;63397;47.480;19.238;2022-11-25T05:15:02;37.90;;;12.48;;
74849;SDS011;63397;47.480;19.238;2022-11-25T05:18:09;37.30;;;13.43;;
74849;SDS011;63397;47.480;19.238;2022-11-25T05:21:17;40.97;;;13.33;;
74849;SDS011;63397;47.480;19.238;2022-11-25T05:24:19;39.13;;;13.97;;
74849;SDS011;63397;47.480;19.238;2022-11-25T05:27:25;43.38;;;14.25;;
74849;SDS011;63397;47.480;19.238;2022-11-25T05:30:29;46.92;;;16.08;;
74849;SDS011;63397;47.480;19.238;2022-11-25T05:33:31;44.58;;;14.57;;
74849;SDS011;63397;47.480;19.238;2022-11-25T05:36:34;44.50;;;15.23;;
74849;SDS011;63397;47.480;19.238;2022-11-25T05:39:37;37.93;;;14.00;;
74849;SDS011;63397;47.480;19.238;2022-11-25T05:43:13;46.55;;;16.13;;
74849;SDS011;63397;47.480;19.238;2022-11-25T05:46:17;45.63;;;15.32;;
74849;SDS011;63397;47.480;19.238;2022-11-25T05:49:27;50.50;;;15.77;;
74849;SDS011;63397;47.480;19.238;2022-11-25T05:52:29;46.50;;;15.27;;
74849;SDS011;63397;47.480;19.238;2022-11-25T05:55:34;52.20;;;16.90;;
74849;SDS011;63397;47.480;19.238;2022-11-25T05:58:39;49.30;;;16.60;;
74849;SDS011;63397;47.480;19.238;2022-11-25T06:01:42;40.95;;;15.05;;
74849;SDS011;63397;47.480;19.238;2022-11-25T06:04:45;47.17;;;15.52;;
74849;SDS011;63397;47.480;19.238;2022-11-25T06:07:47;42.23;;;16.03;;
74849;SDS011;63397;47.480;19.238;2022-11-25T06:10:50;49.03;;;16.33;;
74849;SDS011;63397;47.480;19.238;2022-11-25T06:13:54;49.45;;;16.73;;
74849;SDS011;63397;47.480;19.238;2022-11-25T06:16:58;47.20;;;16.45;;
74849;SDS011;63397;47.480;19.238;2022-11-25T06:20:07;45.42;;;16.10;;
74849;SDS011;63397;47.480;19.238;2022-11-25T06:23:10;42.67;;;16.67;;
74849;SDS011;63397;47.480;19.238;2022-11-25T06:26:16;58.07;;;18.30;;
74849;SDS011;63397;47.480;19.238;2022-11-25T06:29:22;49.13;;;16.67;;
74849;SDS011;63397;47.480;19.238;2022-11-25T06:32:25;45.08;;;16.08;;
74849;SDS011;63397;47.480;19.238;2022-11-25T06:35:34;47.97;;;17.00;;
74849;SDS011;63397;47.480;19.238;2022-11-25T06:38:37;58.33;;;19.13;;
74849;SDS011;63397;47.480;19.238;2022-11-25T06:41:42;57.80;;;20.67;;
74849;SDS011;63397;47.480;19.238;2022-11-25T06:44:45;66.75;;;22.73;;
74849;SDS011;63397;47.480;19.238;2022-11-25T06:47:49;62.85;;;21.27;;
74849;SDS011;63397;47.480;19.238;2022-11-25T06:50:58;59.30;;;19.48;;
74849;SDS011;63397;47.480;19.238;2022-11-25T06:54:03;57.63;;;19.40;;
74849;SDS011;63397;47.480;19.238;2022-11-25T06:57:16;60.90;;;19.67;;
74849;SDS011;63397;47.480;19.238;2022-11-25T07:04:03;75.35;;;23.23;;
74849;SDS011;63397;47.480;19.238;2022-11-25T07:07:06;67.90;;;23.55;;
74849;SDS011;63397;47.480;19.238;2022-11-25T07:10:09;69.63;;;25.80;;
74849;SDS011;63397;47.480;19.238;2022-11-25T07:13:11;72.30;;;25.87;;
74849;SDS011;63397;47.480;19.238;2022-11-25T07:16:36;82.55;;;27.55;;
74849;SDS011;63397;47.480;19.238;2022-11-25T07:19:40;79.97;;;26.52;;
74849;SDS011;63397;47.480;19.238;2022-11-25T07:22:43;73.38;;;24.35;;
74849;SDS011;63397;47.480;19.238;2022-11-25T07:25:46;61.57;;;21.53;;
74849;SDS011;63397;47.480;19.238;2022-11-25T07:28:49;68.90;;;22.30;;
74849;SDS011;63397;47.480;19.238;2022-11-25T07:31:52;72.78;;;22.92;;
74849;SDS011;63397;47.480;19.238;2022-11-25T07:34:56;72.18;;;23.23;;
74849;SDS011;63397;47.480;19.238;2022-11-25T07:37:59;63.58;;;21.70;;
74849;SDS011;63397;47.480;19.238;2022-11-25T07:41:08;63.83;;;21.63;;
74849;SDS011;63397;47.480;19.238;2022-11-25T07:44:12;69.83;;;23.83;;
74849;SDS011;63397;47.480;19.238;2022-11-25T07:47:25;78.07;;;24.40;;
74849;SDS011;63397;47.480;19.238;2022-11-25T07:50:29;70.03;;;23.42;;
74849;SDS011;63397;47.480;19.238;2022-11-25T07:53:36;82.50;;;26.27;;
74849;SDS011;63397;47.480;19.238;2022-11-25T07:56:41;95.67;;;30.97;;
74849;SDS011;63397;47.480;19.238;2022-11-25T07:59:48;82.43;;;26.90;;
74849;SDS011;63397;47.480;19.238;2022-11-25T08:03:01;73.65;;;24.58;;
74849;SDS011;63397;47.480;19.238;2022-11-25T08:06:05;73.93;;;24.08;;
74849;SDS011;63397;47.480;19.238;2022-11-25T08:09:08;73.30;;;25.00;;
74849;SDS011;63397;47.480;19.238;2022-11-25T08:12:12;72.73;;;22.97;;
74849;SDS011;63397;47.480;19.238;2022-11-25T08:15:15;64.40;;;22.00;;
74849;SDS011;63397;47.480;19.238;2022-11-25T08:18:17;64.55;;;20.45;;
74849;SDS011;63397;47.480;19.238;2022-11-25T08:21:20;63.33;;;21.30;;
74849;SDS011;63397;47.480;19.238;2022-11-25T08:24:26;65.68;;;21.90;;
74849;SDS011;63397;47.480;19.238;2022-11-25T08:27:48;65.67;;;20.57;;
74849;SDS011;63397;47.480;19.238;2022-11-25T08:31:05;63.43;;;19.17;;
74849;SDS011;63397;47.480;19.238;2022-11-25T08:34:16;65.60;;;18.88;;
74849;SDS011;63397;47.480;19.238;2022-11-25T08:37:20;62.08;;;19.58;;
74849;SDS011;63397;47.480;19.238;2022-11-25T08:40:25;63.15;;;20.50;;
74849;SDS011;63397;47.480;19.238;2022-11-25T08:43:28;62.43;;;20.47;;
74849;SDS011;63397;47.480;19.238;2022-11-25T08:46:32;64.90;;;20.53;;
74849;SDS011;63397;47.480;19.238;2022-11-25T08:49:40;59.63;;;19.17;;
74849;SDS011;63397;47.480;19.238;2022-11-25T08:52:45;63.28;;;20.00;;
74849;SDS011;63397;47.480;19.238;2022-11-25T08:55:48;55.83;;;18.52;;
74849;SDS011;63397;47.480;19.238;2022-11-25T08:58:52;57.23;;;18.13;;
74849;SDS011;63397;47.480;19.238;2022-11-25T09:01:56;68.30;;;21.00;;
74849;SDS011;63397;47.480;19.238;2022-11-25T09:04:59;63.50;;;20.00;;
74849;SDS011;63397;47.480;19.238;2022-11-25T09:08:02;55.05;;;18.45;;
74849;SDS011;63397;47.480;19.238;2022-11-25T09:11:05;49.35;;;17.67;;
74849;SDS011;63397;47.480;19.238;2022-11-25T09:14:08;52.90;;;16.88;;
74849;SDS011;63397;47.480;19.238;2022-11-25T09:17:10;43.27;;;16.70;;
74849;SDS011;63397;47.480;19.238;2022-11-25T09:20:13;53.75;;;17.73;;
74849;SDS011;63397;47.480;19.238;2022-11-25T09:23:24;45.45;;;15.63;;
74849;SDS011;63397;47.480;19.238;2022-11-25T09:26:29;48.88;;;15.32;;
74849;SDS011;63397;47.480;19.238;2022-11-25T09:29:32;46.47;;;16.25;;
74849;SDS011;63397;47.480;19.238;2022-11-25T09:32:37;45.53;;;14.43;;
74849;SDS011;63397;47.480;19.238;2022-11-25T09:35:40;41.15;;;14.50;;
74849;SDS011;63397;47.480;19.238;2022-11-25T09:38:42;39.10;;;14.15;;
74849;SDS011;63397;47.480;19.238;2022-11-25T09:45:54;35.58;;;12.88;;
74849;SDS011;63397;47.480;19.238;2022-11-25T09:52:15;39.95;;;14.57;;
74849;SDS011;63397;47.480;19.238;2022-11-25T09:55:32;32.60;;;12.60;;
74849;SDS011;63397;47.480;19.238;2022-11-25T09:58:47;30.48;;;11.68;;
74849;SDS011;63397;47.480;19.238;2022-11-25T10:01:54;22.80;;;7.63;;
74849;SDS011;63397;47.480;19.238;2022-11-25T10:05:07;32.53;;;12.17;;
74849;SDS011;63397;47.480;19.238;2022-11-25T10:08:19;40.20;;;14.15;;
74849;SDS011;63397;47.480;19.238;2022-11-25T10:11:39;37.33;;;13.95;;
74849;SDS011;63397;47.480;19.238;2022-11-25T10:14:50;37.75;;;13.52;;
74849;SDS011;63397;47.480;19.238;2022-11-25T10:21:36;32.67;;;13.40;;
74849;SDS011;63397;47.480;19.238;2022-11-25T10:24:45;40.42;;;14.30;;
74849;SDS011;63397;47.480;19.238;2022-11-25T10:27:59;38.45;;;14.52;;
74849;SDS011;63397;47.480;19.238;2022-11-25T10:31:31;34.97;;;13.82;;
74849;SDS011;63397;47.480;19.238;2022-11-25T10:34:52;33.65;;;13.98;;
74849;SDS011;63397;47.480;19.238;2022-11-25T10:38:11;32.97;;;12.43;;
74849;SDS011;63397;47.480;19.238;2022-11-25T10:41:32;31.95;;;12.35;;
74849;SDS011;63397;47.480;19.238;2022-11-25T10:44:40;29.42;;;10.95;;
74849;SDS011;63397;47.480;19.238;2022-11-25T10:51:25;30.88;;;11.52;;
74849;SDS011;63397;47.480;19.238;2022-11-25T10:54:33;28.53;;;11.47;;
74849;SDS011;63397;47.480;19.238;2022-11-25T10:57:46;32.47;;;11.45;;
74849;SDS011;63397;47.480;19.238;2022-11-25T11:01:15;31.77;;;11.35;;
74849;SDS011;63397;47.480;19.238;2022-11-25T11:04:20;26.63;;;10.27;;
74849;SDS011;63397;47.480;19.238;2022-11-25T11:07:32;25.38;;;10.57;;
74849;SDS011;63397;47.480;19.238;2022-11-25T11:10:36;24.27;;;9.83;;
74849;SDS011;63397;47.480;19.238;2022-11-25T11:13:41;32.05;;;10.73;;
74849;SDS011;63397;47.480;19.238;2022-11-25T11:16:54;26.70;;;10.75;;
74849;SDS011;63397;47.480;19.238;2022-11-25T11:23:13;29.55;;;11.25;;
74849;SDS011;63397;47.480;19.238;2022-11-25T11:26:27;33.83;;;13.30;;
74849;SDS011;63397;47.480;19.238;2022-11-25T11:29:30;32.30;;;12.43;;
74849;SDS011;63397;47.480;19.238;2022-11-25T11:32:35;33.17;;;13.38;;
74849;SDS011;63397;47.480;19.238;2022-11-25T11:38:46;36.55;;;14.15;;
74849;SDS011;63397;47.480;19.238;2022-11-25T11:45:32;39.63;;;15.73;;
74849;SDS011;63397;47.480;19.238;2022-11-25T12:05:16;33.22;;;13.50;;
74849;SDS011;63397;47.480;19.238;2022-11-25T12:11:57;33.53;;;12.30;;
74849;SDS011;63397;47.480;19.238;2022-11-25T12:15:07;30.03;;;11.73;;
74849;SDS011;63397;47.480;19.238;2022-11-25T12:24:50;30.67;;;10.55;;
74849;SDS011;63397;47.480;19.238;2022-11-25T12:34:22;25.60;;;9.85;;
74849;SDS011;63397;47.480;19.238;2022-11-25T12:38:17;27.48;;;10.65;;
74849;SDS011;63397;47.480;19.238;2022-11-25T12:44:20;32.53;;;10.82;;
74849;SDS011;63397;47.480;19.238;2022-11-25T12:47:25;29.27;;;10.90;;
74849;SDS011;63397;47.480;19.238;2022-11-25T12:53:52;31.77;;;11.95;;
74849;SDS011;63397;47.480;19.238;2022-11-25T12:57:09;29.77;;;11.23;;
74849;SDS011;63397;47.480;19.238;2022-11-25T13:00:21;31.02;;;11.02;;
74849;SDS011;63397;47.480;19.238;2022-11-25T13:07:09;28.33;;;10.48;;
74849;SDS011;63397;47.480;19.238;2022-11-25T13:16:45;30.08;;;11.10;;
74849;SDS011;63397;47.480;19.238;2022-11-25T13:20:20;26.00;;;10.73;;
74849;SDS011;63397;47.480;19.238;2022-11-25T13:32:46;25.88;;;10.35;;
74849;SDS011;63397;47.480;19.238;2022-11-25T13:35:52;32.20;;;11.70;;
74849;SDS011;63397;47.480;19.238;2022-11-25T13:38:56;32.78;;;12.00;;
74849;SDS011;63397;47.480;19.238;2022-11-25T13:48:38;31.88;;;12.30;;
74849;SDS011;63397;47.480;19.238;2022-11-25T13:51:49;35.40;;;12.03;;
74849;SDS011;63397;47.480;19.238;2022-11-25T13:54:53;30.80;;;12.45;;
74849;SDS011;63397;47.480;19.238;2022-11-25T13:58:01;33.95;;;12.75;;
74849;SDS011;63397;47.480;19.238;2022-11-25T14:01:20;33.83;;;12.90;;
74849;SDS011;63397;47.480;19.238;2022-11-25T14:04:37;33.78;;;12.77;;
74849;SDS011;63397;47.480;19.238;2022-11-25T14:14:22;48.60;;;16.30;;
74849;SDS011;63397;47.480;19.238;2022-11-25T14:17:33;37.85;;;15.18;;
74849;SDS011;63397;47.480;19.238;2022-11-25T14:21:02;43.30;;;17.17;;
74849;SDS011;63397;47.480;19.238;2022-11-25T14:27:24;43.50;;;16.30;;
74849;SDS011;63397;47.480;19.238;2022-11-25T14:30:27;45.10;;;16.30;;
74849;SDS011;63397;47.480;19.238;2022-11-25T14:33:31;43.78;;;16.45;;
74849;SDS011;63397;47.480;19.238;2022-11-25T14:36:37;45.30;;;16.50;;
74849;SDS011;63397;47.480;19.238;2022-11-25T14:43:03;41.20;;;15.93;;
74849;SDS011;63397;47.480;19.238;2022-11-25T14:46:11;44.15;;;17.48;;
74849;SDS011;63397;47.480;19.238;2022-11-25T14:49:14;44.45;;;16.45;;
74849;SDS011;63397;47.480;19.238;2022-11-25T14:52:36;46.92;;;16.48;;
74849;SDS011;63397;47.480;19.238;2022-11-25T14:55:38;50.80;;;17.00;;
74849;SDS011;63397;47.480;19.238;2022-11-25T14:58:41;47.28;;;17.73;;
74849;SDS011;63397;47.480;19.238;2022-11-25T15:01:51;47.35;;;17.85;;
74849;SDS011;63397;47.480;19.238;2022-11-25T15:05:16;51.60;;;17.40;;
74849;SDS011;63397;47.480;19.238;2022-11-25T15:08:17;55.33;;;18.60;;
74849;SDS011;63397;47.480;19.238;2022-11-25T15:11:22;51.80;;;18.70;;
74849;SDS011;63397;47.480;19.238;2022-11-25T15:14:26;45.63;;;17.55;;
74849;SDS011;63397;47.480;19.238;2022-11-25T15:17:30;53.97;;;19.42;;
74849;SDS011;63397;47.480;19.238;2022-11-25T15:20:32;49.30;;;17.13;;
74849;SDS011;63397;47.480;19.238;2022-11-25T15:23:36;45.67;;;17.75;;
74849;SDS011;63397;47.480;19.238;2022-11-25T15:26:39;52.10;;;17.97;;
74849;SDS011;63397;47.480;19.238;2022-11-25T15:29:42;47.25;;;17.08;;
74849;SDS011;63397;47.480;19.238;2022-11-25T15:32:45;51.55;;;18.08;;
74849;SDS011;63397;47.480;19.238;2022-11-25T15:35:48;46.28;;;17.70;;
74849;SDS011;63397;47.480;19.238;2022-11-25T15:38:51;50.35;;;18.77;;
74849;SDS011;63397;47.480;19.238;2022-11-25T15:41:54;49.77;;;17.50;;
74849;SDS011;63397;47.480;19.238;2022-11-25T15:44:58;48.95;;;17.77;;
74849;SDS011;63397;47.480;19.238;2022-11-25T15:48:13;43.30;;;16.05;;
74849;SDS011;63397;47.480;19.238;2022-11-25T15:54:37;53.15;;;16.90;;
74849;SDS011;63397;47.480;19.238;2022-11-25T15:57:40;49.67;;;17.10;;
74849;SDS011;63397;47.480;19.238;2022-11-25T16:00:58;56.08;;;18.08;;
74849;SDS011;63397;47.480;19.238;2022-11-25T16:07:32;49.22;;;16.85;;
74849;SDS011;63397;47.480;19.238;2022-11-25T16:13:50;45.63;;;16.53;;
74849;SDS011;63397;47.480;19.238;2022-11-25T16:17:09;48.97;;;17.52;;
74849;SDS011;63397;47.480;19.238;2022-11-25T16:20:16;44.78;;;16.77;;
74849;SDS011;63397;47.480;19.238;2022-11-25T16:23:19;48.70;;;15.68;;
74849;SDS011;63397;47.480;19.238;2022-11-25T16:26:23;47.57;;;16.63;;
74849;SDS011;63397;47.480;19.238;2022-11-25T16:29:32;47.97;;;16.23;;
74849;SDS011;63397;47.480;19.238;2022-11-25T16:32:36;51.95;;;17.60;;
74849;SDS011;63397;47.480;19.238;2022-11-25T16:35:39;48.13;;;17.02;;
74849;SDS011;63397;47.480;19.238;2022-11-25T16:38:41;49.92;;;17.08;;
74849;SDS011;63397;47.480;19.238;2022-11-25T16:41:44;50.50;;;18.20;;
74849;SDS011;63397;47.480;19.238;2022-11-25T16:44:55;54.13;;;17.93;;
74849;SDS011;63397;47.480;19.238;2022-11-25T16:47:57;52.25;;;17.85;;
74849;SDS011;63397;47.480;19.238;2022-11-25T16:50:59;50.17;;;18.35;;
74849;SDS011;63397;47.480;19.238;2022-11-25T16:54:02;46.90;;;17.13;;
74849;SDS011;63397;47.480;19.238;2022-11-25T16:57:06;46.90;;;17.40;;
74849;SDS011;63397;47.480;19.238;2022-11-25T17:00:12;50.13;;;17.27;;
74849;SDS011;63397;47.480;19.238;2022-11-25T17:03:15;56.35;;;17.33;;
74849;SDS011;63397;47.480;19.238;2022-11-25T17:06:19;52.17;;;17.60;;
74849;SDS011;63397;47.480;19.238;2022-11-25T17:09:23;54.30;;;17.45;;
74849;SDS011;63397;47.480;19.238;2022-11-25T17:12:30;58.07;;;18.33;;
74849;SDS011;63397;47.480;19.238;2022-11-25T17:15:33;54.10;;;18.17;;
74849;SDS011;63397;47.480;19.238;2022-11-25T17:18:36;57.75;;;18.30;;
74849;SDS011;63397;47.480;19.238;2022-11-25T17:21:38;56.25;;;17.73;;
74849;SDS011;63397;47.480;19.238;2022-11-25T17:24:41;52.10;;;16.88;;
74849;SDS011;63397;47.480;19.238;2022-11-25T17:27:43;50.43;;;16.03;;
74849;SDS011;63397;47.480;19.238;2022-11-25T17:30:47;49.33;;;15.53;;
74849;SDS011;63397;47.480;19.238;2022-11-25T17:33:50;48.22;;;15.77;;
74849;SDS011;63397;47.480;19.238;2022-11-25T17:36:52;51.47;;;15.35;;
74849;SDS011;63397;47.480;19.238;2022-11-25T17:39:55;49.65;;;15.60;;
74849;SDS011;63397;47.480;19.238;2022-11-25T17:42:57;54.43;;;17.10;;
74849;SDS011;63397;47.480;19.238;2022-11-25T17:45:59;53.60;;;17.40;;
74849;SDS011;63397;47.480;19.238;2022-11-25T17:49:02;57.30;;;17.42;;
74849;SDS011;63397;47.480;19.238;2022-11-25T17:52:05;53.35;;;16.35;;
74849;SDS011;63397;47.480;19.238;2022-11-25T17:55:07;62.63;;;17.98;;
74849;SDS011;63397;47.480;19.238;2022-11-25T17:58:10;69.67;;;18.47;;
74849;SDS011;63397;47.480;19.238;2022-11-25T18:01:14;63.93;;;20.83;;
74849;SDS011;63397;47.480;19.238;2022-11-25T18:04:24;62.83;;;19.20;;
74849;SDS011;63397;47.480;19.238;2022-11-25T18:07:27;71.88;;;21.15;;
74849;SDS011;63397;47.480;19.238;2022-11-25T18:10:30;64.88;;;19.52;;
74849;SDS011;63397;47.480;19.238;2022-11-25T18:13:36;64.13;;;18.07;;
74849;SDS011;63397;47.480;19.238;2022-11-25T18:16:39;61.40;;;18.47;;
74849;SDS011;63397;47.480;19.238;2022-11-25T18:19:43;64.25;;;18.65;;
74849;SDS011;63397;47.480;19.238;2022-11-25T18:22:53;61.92;;;18.35;;
74849;SDS011;63397;47.480;19.238;2022-11-25T18:25:56;58.47;;;17.55;;
74849;SDS011;63397;47.480;19.238;2022-11-25T18:29:01;55.07;;;15.23;;
74849;SDS011;63397;47.480;19.238;2022-11-25T18:32:04;62.77;;;17.60;;
74849;SDS011;63397;47.480;19.238;2022-11-25T18:35:23;57.28;;;17.35;;
74849;SDS011;63397;47.480;19.238;2022-11-25T18:38:25;53.97;;;16.70;;
74849;SDS011;63397;47.480;19.238;2022-11-25T18:41:28;52.85;;;16.08;;
74849;SDS011;63397;47.480;19.238;2022-11-25T18:44:30;61.97;;;17.17;;
74849;SDS011;63397;47.480;19.238;2022-11-25T18:47:36;61.37;;;17.73;;
74849;SDS011;63397;47.480;19.238;2022-11-25T18:50:39;67.00;;;19.50;;
74849;SDS011;63397;47.480;19.238;2022-11-25T18:53:41;69.53;;;19.40;;
74849;SDS011;63397;47.480;19.238;2022-11-25T18:56:44;65.38;;;18.38;;
74849;SDS011;63397;47.480;19.238;2022-11-25T18:59:47;64.93;;;17.30;;
74849;SDS011;63397;47.480;19.238;2022-11-25T19:03:17;73.40;;;20.40;;
74849;SDS011;63397;47.480;19.238;2022-11-25T19:06:21;63.97;;;16.60;;
74849;SDS011;63397;47.480;19.238;2022-11-25T19:09:23;74.22;;;18.40;;
74849;SDS011;63397;47.480;19.238;2022-11-25T19:12:26;69.18;;;18.08;;
74849;SDS011;63397;47.480;19.238;2022-11-25T19:15:28;60.53;;;16.70;;
74849;SDS011;63397;47.480;19.238;2022-11-25T19:18:30;68.00;;;17.00;;
74849;SDS011;63397;47.480;19.238;2022-11-25T19:21:33;56.28;;;16.35;;
74849;SDS011;63397;47.480;19.238;2022-11-25T19:24:35;54.33;;;14.82;;
74849;SDS011;63397;47.480;19.238;2022-11-25T19:27:39;63.63;;;16.48;;
74849;SDS011;63397;47.480;19.238;2022-11-25T19:30:44;73.63;;;17.67;;
74849;SDS011;63397;47.480;19.238;2022-11-25T19:33:47;67.83;;;17.57;;
74849;SDS011;63397;47.480;19.238;2022-11-25T19:36:50;62.88;;;17.27;;
74849;SDS011;63397;47.480;19.238;2022-11-25T19:39:53;62.72;;;16.20;;
74849;SDS011;63397;47.480;19.238;2022-11-25T19:42:55;70.75;;;17.42;;
74849;SDS011;63397;47.480;19.238;2022-11-25T19:45:58;70.43;;;16.90;;
74849;SDS011;63397;47.480;19.238;2022-11-25T19:49:01;75.77;;;18.80;;
74849;SDS011;63397;47.480;19.238;2022-11-25T19:52:04;72.78;;;19.33;;
74849;SDS011;63397;47.480;19.238;2022-11-25T19:55:14;65.43;;;17.20;;